createdAt,value
2022-11-06T00:04:20.004Z,18.4
2022-11-06T00:09:26.088Z,18.4
2022-11-06T00:14:32.012Z,18.4
2022-11-06T00:19:39.431Z,18.4
2022-11-06T00:24:46.494Z,18.4
2022-11-06T00:30:13.353Z,18.4
2022-11-06T00:35:19.848Z,18.4
2022-11-06T00:40:40.512Z,18.4
2022-11-06T00:46:02.481Z,18.4
2022-11-06T00:51:25.570Z,18.3
2022-11-06T00:56:47.513Z,18.3
2022-11-06T01:02:10.792Z,18.4
2022-11-06T01:07:33.672Z,18.3
2022-11-06T01:13:22.443Z,18.3
2022-11-06T01:18:43.822Z,18.3
2022-11-06T01:24:06.403Z,18.3
2022-11-06T01:30:10.995Z,18.4
2022-11-06T01:35:17.972Z,18.3
2022-11-06T01:40:24.232Z,18.3
2022-11-06T01:46:06.133Z,18.3
2022-11-06T01:51:27.218Z,18.3
2022-11-06T01:57:05.549Z,18.3
2022-11-06T02:02:29.166Z,18.3
2022-11-06T02:07:35.376Z,18.3
2022-11-06T02:12:57.706Z,18.3
2022-11-06T02:18:34.873Z,18.3
2022-11-06T02:24:10.813Z,18.3
2022-11-06T02:29:32.591Z,18.3
2022-11-06T02:34:54.552Z,18.3
2022-11-06T02:40:15.977Z,18.3
2022-11-06T02:45:53.551Z,18.3
2022-11-06T02:51:30.847Z,18.3
2022-11-06T02:56:52.631Z,18.3
2022-11-06T03:02:15.581Z,18.3
2022-11-06T03:07:38.575Z,18.3
2022-11-06T03:13:15.784Z,18.4
2022-11-06T03:18:53.441Z,18.3
2022-11-06T03:24:31.305Z,18.3
2022-11-06T03:29:37.439Z,18.3
2022-11-06T03:35:04.913Z,18.3
2022-11-06T03:40:42.655Z,18.3
2022-11-06T03:46:18.287Z,18.3
2022-11-06T03:51:55.107Z,18.3
2022-11-06T03:57:32.300Z,18.3
2022-11-06T04:03:11.518Z,18.3
2022-11-06T04:08:34.126Z,18.3
2022-11-06T04:13:55.959Z,18.3
2022-11-06T04:19:01.879Z,18.3
2022-11-06T04:24:39.398Z,18.3
2022-11-06T04:30:17.317Z,18.3
2022-11-06T04:35:25.374Z,18.3
2022-11-06T04:40:46.739Z,18.4
2022-11-06T04:46:09.677Z,18.3
2022-11-06T04:51:31.088Z,18.3
2022-11-06T04:57:18.647Z,18.3
2022-11-06T05:02:40.440Z,18.3
2022-11-06T05:08:21.906Z,18.3
2022-11-06T05:13:58.700Z,18.3
2022-11-06T05:19:36.681Z,18.3
2022-11-06T05:25:13.120Z,18.3
2022-11-06T05:30:57.480Z,18.3
2022-11-06T05:36:34.162Z,18.3
2022-11-06T05:42:11.401Z,18.3
2022-11-06T05:48:13.434Z,18.3
2022-11-06T05:53:50.805Z,18.3
2022-11-06T05:59:13.467Z,18.3
2022-11-06T06:04:52.438Z,18.3
2022-11-06T06:10:29.596Z,18.3
2022-11-06T06:16:13.295Z,18.3
2022-11-06T06:21:51.666Z,18.3
2022-11-06T06:27:20.134Z,18.3
2022-11-06T06:32:58.612Z,18.3
2022-11-06T06:38:25.997Z,18.3
2022-11-06T06:44:10.106Z,18.3
2022-11-06T06:49:48.116Z,18.3
2022-11-06T06:55:25.820Z,18.3
2022-11-06T07:01:04.635Z,18.3
2022-11-06T07:06:34.132Z,18.3
2022-11-06T07:12:12.406Z,18.3
2022-11-06T07:17:50.588Z,18.3
2022-11-06T07:23:21.447Z,18.3
2022-11-06T07:28:43.435Z,18.3
2022-11-06T07:34:06.100Z,18.3
2022-11-06T07:39:28.334Z,18.3
2022-11-06T07:44:56.015Z,18.3
2022-11-06T07:50:08.721Z,18.3
2022-11-06T07:55:31.416Z,18.3
2022-11-06T08:00:53.122Z,18.3
2022-11-06T08:06:04.977Z,18.3
2022-11-06T08:11:28.544Z,18.3
2022-11-06T08:16:54.201Z,18.3
2022-11-06T08:22:17.266Z,18.3
2022-11-06T08:27:46.533Z,18.4
2022-11-06T08:33:09.944Z,18.4
2022-11-06T08:38:34.192Z,18.4
2022-11-06T08:43:42.907Z,18.4
2022-11-06T08:49:08.351Z,18.4
2022-11-06T08:54:33.598Z,18.4
2022-11-06T09:00:19.136Z,18.2
2022-11-06T09:06:05.239Z,18.1
2022-11-06T09:11:49.462Z,18.1
2022-11-06T09:17:18.663Z,18.1
2022-11-06T09:22:46.388Z,18.1
2022-11-06T09:28:50.442Z,18.8
2022-11-06T09:34:20.656Z,20
2022-11-06T09:40:04.882Z,21.1
2022-11-06T09:46:17.099Z,21.6
2022-11-06T09:51:57.005Z,21.8
2022-11-06T09:57:45.451Z,22.2
2022-11-06T10:03:31.024Z,22.5
2022-11-06T10:09:10.357Z,22.7
2022-11-06T10:14:47.838Z,22.8
2022-11-06T10:20:27.423Z,22.9
2022-11-06T10:26:05.556Z,22.8
2022-11-06T10:31:43.301Z,23.1
2022-11-06T10:37:24.179Z,23.5
2022-11-06T10:43:02.135Z,23.7
2022-11-06T10:48:44.872Z,23.1
2022-11-06T10:54:22.323Z,22.8
2022-11-06T11:00:05.416Z,22.4
2022-11-06T11:05:48.716Z,22.6
2022-11-06T11:11:22.712Z,22.4
2022-11-06T11:16:50.644Z,23.3
2022-11-06T11:22:12.837Z,23.9
2022-11-06T11:27:39.374Z,24.4
2022-11-06T11:33:04.103Z,25.4
2022-11-06T11:38:32.830Z,26.6
2022-11-06T11:43:56.306Z,26.3
2022-11-06T11:49:38.552Z,25.5
2022-11-06T11:55:22.639Z,24.8
2022-11-06T12:01:33.346Z,24.2
2022-11-06T12:07:16.101Z,24.7
2022-11-06T12:12:38.154Z,25.8
2022-11-06T12:18:00.747Z,26.3
2022-11-06T12:23:45.899Z,26.1
2022-11-06T12:29:23.562Z,25.9
2022-11-06T12:35:29.825Z,25.8
2022-11-06T12:41:13.824Z,25.8
2022-11-06T12:46:51.381Z,25.2
2022-11-06T12:52:15.001Z,25.4
2022-11-06T12:57:37.746Z,24.4
2022-11-06T13:03:18.223Z,24.8
2022-11-06T13:08:43.184Z,24.6
2022-11-06T13:14:22.349Z,24.5
2022-11-06T13:20:00.318Z,25.4
2022-11-06T13:25:39.747Z,25.9
2022-11-06T13:31:18.027Z,25.6
2022-11-06T13:36:55.325Z,24.8
2022-11-06T13:42:17.259Z,25
2022-11-06T13:47:55.483Z,24.8
2022-11-06T13:52:51.709Z,25.1
2022-11-06T13:58:15.937Z,25.3
2022-11-06T14:03:56.519Z,25.3
2022-11-06T14:09:40.634Z,25
2022-11-06T14:15:18.207Z,25.1
2022-11-06T14:20:57.590Z,25.4
2022-11-06T14:26:40.905Z,25.1
2022-11-06T14:32:53.583Z,25.1
2022-11-06T14:38:20.961Z,25.2
2022-11-06T14:44:03.323Z,25.1
2022-11-06T14:49:43.517Z,25
2022-11-06T14:55:23.012Z,24.9
2022-11-06T15:01:02.359Z,25.1
2022-11-06T15:06:45.602Z,25.1
2022-11-06T15:12:55.178Z,25.2
2022-11-06T15:18:23.520Z,24.9
2022-11-06T15:23:14.690Z,24.7
2022-11-06T15:28:52.592Z,24.3
2022-11-06T15:34:15.388Z,24.2
2022-11-06T15:39:37.140Z,24.6
2022-11-06T15:45:22.269Z,24.6
2022-11-06T15:50:59.854Z,24.9
2022-11-06T15:56:47.311Z,25.3
2022-11-06T16:02:30.140Z,25.3
2022-11-06T16:08:13.927Z,25.2
2022-11-06T16:13:58.083Z,25.3
2022-11-06T16:19:40.566Z,25.8
2022-11-06T16:24:52.835Z,25.4
2022-11-06T16:29:44.182Z,24.8
2022-11-06T16:35:29.458Z,25.1
2022-11-06T16:41:44.969Z,24.8
2022-11-06T16:47:22.604Z,24.6
2022-11-06T16:52:45.675Z,24.3
2022-11-06T16:58:08.432Z,24
2022-11-06T17:03:35.883Z,23.8
2022-11-06T17:08:58.723Z,23.6
2022-11-06T17:14:36.167Z,23.5
2022-11-06T17:19:58.548Z,23.6
2022-11-06T17:25:44.559Z,23.5
2022-11-06T17:31:07.511Z,23.4
2022-11-06T17:36:29.824Z,23.4
2022-11-06T17:42:07.619Z,23.4
2022-11-06T17:47:14.674Z,23.1
2022-11-06T17:52:42.722Z,23
2022-11-06T17:58:10.700Z,22.9
2022-11-06T18:04:25.855Z,22.6
2022-11-06T18:10:02.642Z,22.4
2022-11-06T18:15:40.562Z,22.3
2022-11-06T18:20:31.504Z,22.2
2022-11-06T18:25:07.294Z,22.1
2022-11-06T18:30:34.461Z,22.1
2022-11-06T18:36:16.998Z,22.1
2022-11-06T18:41:58.744Z,21.9
2022-11-06T18:47:20.853Z,21.9
2022-11-06T18:53:46.109Z,21.8
2022-11-06T18:59:29.487Z,21.8
2022-11-06T19:05:16.189Z,21.7
2022-11-06T19:10:43.692Z,21.7
2022-11-06T19:16:20.832Z,21.6
2022-11-06T19:21:56.306Z,21.6
2022-11-06T19:27:55.435Z,21.6
2022-11-06T19:33:39.696Z,21.6
2022-11-06T19:39:03.868Z,21.6
2022-11-06T19:44:41.378Z,21.6
2022-11-06T19:50:46.138Z,21.5
2022-11-06T19:58:18.639Z,21.6
2022-11-06T20:03:41.650Z,21.6
2022-11-06T20:09:11.007Z,21.6
2022-11-06T20:14:49.502Z,21.6
2022-11-06T20:20:12.726Z,21.5
2022-11-06T20:25:42.136Z,21.6
2022-11-06T20:31:25.383Z,21.5
2022-11-06T20:37:06.986Z,21.4
2022-11-06T20:42:47.457Z,21.3
2022-11-06T20:48:11.239Z,21.4
2022-11-06T20:54:24.938Z,21.4
2022-11-06T21:00:08.996Z,21.4
2022-11-06T21:05:16.829Z,21.4
2022-11-06T21:10:39.272Z,21.4
2022-11-06T21:16:01.743Z,21.4
2022-11-06T21:21:29.153Z,21.4
2022-11-06T21:26:53.624Z,21.4
2022-11-06T21:32:23.063Z,21.3
2022-11-06T21:37:52.818Z,21.3
2022-11-06T21:54:15.045Z,21.1
2022-11-06T22:05:04.229Z,21.3
2022-11-06T22:10:48.441Z,21.3
2022-11-06T22:16:11.061Z,21.2
2022-11-06T22:34:13.650Z,21.1
2022-11-06T22:39:51.379Z,21.1
2022-11-06T22:45:35.236Z,21
2022-11-06T22:51:13.077Z,21
2022-11-06T22:56:35.076Z,20.9
2022-11-06T23:02:16.509Z,20.9
2022-11-06T23:07:54.871Z,20.9
2022-11-06T23:13:34.246Z,20.9
2022-11-06T23:19:13.453Z,20.9
2022-11-06T23:24:20.678Z,20.8
2022-11-06T23:29:45.653Z,20.8
2022-11-06T23:34:51.402Z,20.1
2022-11-06T23:40:22.328Z,20.4
2022-11-06T23:45:28.938Z,20.6
2022-11-06T23:50:53.828Z,20.6
2022-11-06T23:56:31.722Z,20.6
